createdAt,value
2022-07-27T00:00:53.662Z,562.60
2022-07-27T00:01:53.566Z,563.40
2022-07-27T00:02:53.573Z,555.60
2022-07-27T00:03:53.580Z,554.60
2022-07-27T00:04:53.517Z,563.90
2022-07-27T00:05:53.507Z,557.20
2022-07-27T00:06:53.496Z,546.80
2022-07-27T00:07:53.487Z,502.80
2022-07-27T00:08:53.467Z,493.10
2022-07-27T00:09:53.457Z,494.60
2022-07-27T00:10:53.444Z,494.00
2022-07-27T00:11:53.427Z,470.70
2022-07-27T00:12:53.428Z,430.50
2022-07-27T00:13:53.555Z,541.10
2022-07-27T00:14:53.387Z,463.40
2022-07-27T00:15:53.441Z,453.00
2022-07-27T00:16:53.423Z,570.60
2022-07-27T00:17:53.360Z,605.70
2022-07-27T00:18:53.344Z,583.40
2022-07-27T00:19:53.330Z,591.70
2022-07-27T00:20:53.310Z,599.20
2022-07-27T00:21:53.307Z,593.20
2022-07-27T00:22:53.287Z,588.70
2022-07-27T00:23:53.279Z,579.00
2022-07-27T00:24:53.367Z,574.80
2022-07-27T00:25:53.278Z,583.40
2022-07-27T00:26:53.237Z,575.50
2022-07-27T00:27:53.227Z,526.30
2022-07-27T00:28:53.208Z,424.80
2022-07-27T00:29:53.199Z,381.60
2022-07-27T00:30:53.221Z,386.80
2022-07-27T00:31:53.266Z,429.60
2022-07-27T00:32:53.159Z,427.30
2022-07-27T00:33:53.157Z,402.00
2022-07-27T00:34:53.133Z,396.00
2022-07-27T00:35:53.540Z,402.00
2022-07-27T00:36:53.107Z,401.20
2022-07-27T00:37:53.099Z,376.60
2022-07-27T00:38:53.085Z,391.90
2022-07-27T00:39:53.068Z,501.70
2022-07-27T00:40:53.064Z,569.20
2022-07-27T00:41:53.055Z,592.50
2022-07-27T00:42:53.028Z,583.90
2022-07-27T00:43:53.021Z,586.50
2022-07-27T00:44:53.007Z,588.90
2022-07-27T00:45:52.990Z,575.40
2022-07-27T00:46:53.388Z,573.90
2022-07-27T00:47:55.071Z,585.60
2022-07-27T00:48:52.980Z,594.10
2022-07-27T00:49:52.940Z,596.10
2022-07-27T00:50:52.920Z,585.70
2022-07-27T00:51:52.919Z,585.40
2022-07-27T00:52:52.901Z,590.90
2022-07-27T00:53:52.890Z,524.10
2022-07-27T00:54:52.879Z,489.60
2022-07-27T00:55:52.860Z,527.00
2022-07-27T00:56:52.845Z,518.40
2022-07-27T00:57:58.648Z,555.00
2022-07-27T00:58:53.820Z,520.40
2022-07-27T00:59:52.809Z,509.10
2022-07-27T01:00:52.791Z,538.40
2022-07-27T01:01:53.010Z,551.10
2022-07-27T01:02:52.919Z,589.50
2022-07-27T01:03:52.790Z,590.80
2022-07-27T01:04:53.715Z,590.30
2022-07-27T01:05:52.742Z,589.60
2022-07-27T01:06:52.722Z,593.50
2022-07-27T01:07:52.712Z,579.10
2022-07-27T01:08:52.762Z,574.20
2022-07-27T01:09:52.680Z,581.80
2022-07-27T01:10:52.666Z,585.00
2022-07-27T01:11:52.656Z,585.50
2022-07-27T01:12:52.644Z,577.00
2022-07-27T01:13:52.632Z,573.20
2022-07-27T01:14:52.611Z,573.20
2022-07-27T01:15:52.640Z,581.70
2022-07-27T01:16:52.583Z,582.30
2022-07-27T01:17:52.576Z,584.70
2022-07-27T01:18:52.572Z,578.00
2022-07-27T01:19:52.921Z,590.20
2022-07-27T01:20:52.536Z,590.80
2022-07-27T01:21:52.532Z,559.70
2022-07-27T01:22:52.509Z,555.80
2022-07-27T01:23:52.501Z,588.00
2022-07-27T01:24:52.482Z,587.00
2022-07-27T01:25:52.473Z,582.10
2022-07-27T01:26:52.453Z,583.10
2022-07-27T01:27:52.463Z,574.50
2022-07-27T01:28:52.443Z,486.80
2022-07-27T01:29:52.424Z,481.60
2022-07-27T01:30:52.514Z,538.40
2022-07-27T01:31:52.393Z,518.60
2022-07-27T01:32:52.384Z,540.70
2022-07-27T01:33:52.365Z,552.30
2022-07-27T01:34:52.352Z,552.60
2022-07-27T01:35:52.343Z,524.50
2022-07-27T01:36:52.325Z,551.00
2022-07-27T01:37:52.331Z,573.10
2022-07-27T01:38:52.314Z,587.90
2022-07-27T01:39:52.284Z,566.30
2022-07-27T01:40:52.306Z,562.00
2022-07-27T01:41:52.345Z,559.50
2022-07-27T01:42:52.249Z,555.10
2022-07-27T01:43:52.247Z,559.30
2022-07-27T01:44:52.224Z,575.10
2022-07-27T01:45:52.219Z,571.90
2022-07-27T01:46:52.308Z,580.50
2022-07-27T01:47:52.184Z,578.00
2022-07-27T01:48:52.251Z,575.60
2022-07-27T01:49:52.164Z,579.30
2022-07-27T01:50:52.147Z,585.70
2022-07-27T01:51:52.134Z,592.60
2022-07-27T01:52:52.286Z,590.70
2022-07-27T01:53:52.114Z,591.70
2022-07-27T01:54:52.094Z,591.60
2022-07-27T01:55:52.089Z,590.60
2022-07-27T01:56:52.065Z,577.40
2022-07-27T01:57:52.055Z,550.40
2022-07-27T01:58:52.073Z,549.90
2022-07-27T01:59:52.047Z,537.40
2022-07-27T02:00:52.014Z,551.80
2022-07-27T02:01:52.085Z,571.80
2022-07-27T02:02:51.985Z,596.90
2022-07-27T02:03:52.075Z,600.40
2022-07-27T02:04:51.989Z,598.10
2022-07-27T02:05:51.955Z,590.00
2022-07-27T02:06:51.949Z,596.70
2022-07-27T02:07:56.946Z,591.80
2022-07-27T02:08:51.905Z,592.30
2022-07-27T02:09:51.899Z,609.30
2022-07-27T02:10:51.887Z,582.90
2022-07-27T02:11:51.875Z,564.90
2022-07-27T02:12:51.865Z,556.90
2022-07-27T02:13:51.847Z,568.50
2022-07-27T02:14:51.895Z,576.90
2022-07-27T02:15:54.719Z,560.90
2022-07-27T02:16:51.818Z,573.20
2022-07-27T02:17:51.795Z,530.00
2022-07-27T02:18:51.786Z,535.00
2022-07-27T02:19:51.778Z,550.60
2022-07-27T02:20:51.758Z,551.70
2022-07-27T02:21:51.782Z,523.00
2022-07-27T02:22:51.727Z,498.70
2022-07-27T02:23:51.715Z,456.50
2022-07-27T02:24:51.708Z,444.40
2022-07-27T02:25:51.918Z,471.40
2022-07-27T02:26:51.695Z,538.80
2022-07-27T02:27:51.664Z,568.90
2022-07-27T02:28:51.662Z,571.70
2022-07-27T02:29:51.638Z,581.20
2022-07-27T02:30:51.629Z,566.90
2022-07-27T02:31:51.617Z,536.90
2022-07-27T02:32:51.684Z,545.90
2022-07-27T02:33:51.590Z,574.60
2022-07-27T02:34:51.579Z,568.00
2022-07-27T02:35:51.568Z,590.30
2022-07-27T02:36:51.689Z,592.90
2022-07-27T02:37:51.528Z,582.10
2022-07-27T02:38:51.527Z,553.90
2022-07-27T02:39:51.522Z,504.30
2022-07-27T02:40:51.541Z,500.00
2022-07-27T02:41:51.497Z,530.60
2022-07-27T02:42:51.475Z,554.90
2022-07-27T02:43:51.474Z,563.50
2022-07-27T02:44:51.452Z,585.80
2022-07-27T02:45:51.500Z,569.20
2022-07-27T02:46:51.433Z,556.50
2022-07-27T02:47:51.478Z,564.50
2022-07-27T02:48:51.462Z,566.10
2022-07-27T02:49:51.379Z,566.60
2022-07-27T02:50:51.378Z,582.40
2022-07-27T02:51:51.350Z,559.40
2022-07-27T02:52:51.341Z,502.90
2022-07-27T02:53:51.331Z,506.10
2022-07-27T02:54:51.315Z,513.00
2022-07-27T02:55:51.300Z,447.80
2022-07-27T02:56:51.291Z,491.10
2022-07-27T02:57:51.271Z,486.70
2022-07-27T02:58:51.405Z,403.00
2022-07-27T02:59:51.246Z,391.10
2022-07-27T03:00:54.930Z,387.40
2022-07-27T03:01:52.248Z,381.70
2022-07-27T03:02:51.285Z,372.00
2022-07-27T03:03:51.199Z,353.70
2022-07-27T03:04:51.245Z,370.20
2022-07-27T03:05:51.169Z,355.70
2022-07-27T03:06:51.161Z,361.40
2022-07-27T03:07:51.140Z,376.70
2022-07-27T03:08:51.141Z,379.30
2022-07-27T03:09:52.725Z,429.90
2022-07-27T03:10:51.108Z,472.50
2022-07-27T03:11:51.111Z,444.20
2022-07-27T03:12:51.081Z,419.30
2022-07-27T03:13:51.070Z,456.50
2022-07-27T03:14:51.062Z,442.50
2022-07-27T03:15:51.102Z,439.10
2022-07-27T03:16:51.031Z,402.00
2022-07-27T03:17:51.013Z,388.40
2022-07-27T03:18:51.008Z,421.80
2022-07-27T03:19:50.990Z,426.80
2022-07-27T03:20:51.112Z,415.60
2022-07-27T03:21:50.962Z,425.90
2022-07-27T03:22:50.963Z,448.00
2022-07-27T03:23:50.930Z,460.40
2022-07-27T03:24:50.922Z,442.70
2022-07-27T03:25:50.911Z,442.90
2022-07-27T03:26:50.922Z,435.10
2022-07-27T03:27:50.891Z,432.70
2022-07-27T03:28:50.881Z,426.70
2022-07-27T03:29:50.851Z,454.60
2022-07-27T03:30:50.901Z,446.60
2022-07-27T03:31:51.059Z,457.10
2022-07-27T03:32:50.822Z,450.50
2022-07-27T03:33:50.802Z,451.70
2022-07-27T03:34:50.793Z,450.70
2022-07-27T03:35:50.781Z,454.70
2022-07-27T03:36:50.775Z,409.80
2022-07-27T03:37:50.752Z,443.20
2022-07-27T03:38:50.743Z,443.00
2022-07-27T03:39:50.741Z,453.20
2022-07-27T03:40:50.717Z,451.30
2022-07-27T03:41:50.700Z,445.90
2022-07-27T03:42:50.931Z,447.80
2022-07-27T03:43:50.682Z,421.40
2022-07-27T03:44:50.692Z,404.50
2022-07-27T03:45:50.689Z,416.00
2022-07-27T03:46:50.651Z,378.80
2022-07-27T03:47:50.644Z,373.60
2022-07-27T03:48:50.685Z,371.20
2022-07-27T03:49:50.602Z,363.20
2022-07-27T03:50:50.604Z,360.10
2022-07-27T03:51:50.607Z,369.20
2022-07-27T03:52:50.573Z,382.20
2022-07-27T03:53:50.612Z,414.60
2022-07-27T03:54:50.537Z,413.90
2022-07-27T03:55:50.529Z,394.90
2022-07-27T03:56:50.527Z,391.50
2022-07-27T03:57:50.501Z,386.10
2022-07-27T03:58:50.494Z,377.60
2022-07-27T03:59:50.469Z,368.10
2022-07-27T04:00:50.510Z,361.90
2022-07-27T04:01:50.442Z,374.70
2022-07-27T04:02:50.472Z,390.90
2022-07-27T04:03:50.432Z,411.10
2022-07-27T04:04:50.686Z,419.90
2022-07-27T04:05:50.395Z,422.60
2022-07-27T04:06:50.384Z,441.10
2022-07-27T04:07:54.640Z,467.30
2022-07-27T04:08:50.757Z,501.50
2022-07-27T04:09:50.347Z,517.40
2022-07-27T04:10:50.334Z,569.70
2022-07-27T04:11:50.640Z,596.90
2022-07-27T04:12:50.304Z,599.90
2022-07-27T04:13:50.284Z,613.20
2022-07-27T04:14:50.275Z,613.30
2022-07-27T04:15:50.366Z,619.70
2022-07-27T04:16:50.314Z,618.70
2022-07-27T04:17:54.310Z,614.10
2022-07-27T04:18:51.244Z,610.70
2022-07-27T04:19:50.205Z,617.90
2022-07-27T04:20:50.211Z,605.20
2022-07-27T04:21:50.182Z,597.30
2022-07-27T04:22:50.172Z,586.30
2022-07-27T04:23:50.158Z,550.70
2022-07-27T04:24:50.228Z,555.70
2022-07-27T04:25:50.145Z,572.30
2022-07-27T04:26:50.254Z,587.80
2022-07-27T04:27:50.104Z,581.70
2022-07-27T04:28:50.106Z,599.20
2022-07-27T04:29:50.076Z,596.80
2022-07-27T04:30:50.129Z,603.80
2022-07-27T04:31:50.057Z,589.60
2022-07-27T04:32:50.046Z,599.90
2022-07-27T04:33:50.025Z,615.70
2022-07-27T04:34:50.017Z,608.10
2022-07-27T04:35:50.019Z,587.00
2022-07-27T04:36:50.026Z,547.20
2022-07-27T04:37:57.850Z,544.20
2022-07-27T04:38:50.977Z,579.30
2022-07-27T04:39:49.945Z,589.30
2022-07-27T04:40:51.847Z,554.70
2022-07-27T04:41:50.940Z,575.10
2022-07-27T04:42:49.989Z,589.30
2022-07-27T04:43:49.897Z,597.40
2022-07-27T04:44:49.886Z,597.60
2022-07-27T04:45:49.924Z,576.50
2022-07-27T04:46:49.862Z,536.20
2022-07-27T04:47:49.844Z,517.10
2022-07-27T04:48:49.993Z,503.20
2022-07-27T04:49:49.828Z,468.70
2022-07-27T04:50:49.820Z,455.20
2022-07-27T04:51:49.807Z,412.20
2022-07-27T04:52:49.782Z,378.50
2022-07-27T04:53:53.569Z,367.70
2022-07-27T04:54:50.767Z,398.80
2022-07-27T04:55:49.796Z,406.10
2022-07-27T04:56:49.728Z,435.00
2022-07-27T04:57:49.707Z,460.50
2022-07-27T04:58:49.709Z,464.10
2022-07-27T04:59:49.774Z,457.60
2022-07-27T05:00:49.816Z,433.50
2022-07-27T05:01:49.751Z,460.70
2022-07-27T05:02:49.679Z,414.70
2022-07-27T05:03:49.716Z,423.20
2022-07-27T05:04:49.630Z,429.80
2022-07-27T05:05:50.358Z,431.80
2022-07-27T05:06:49.601Z,436.10
2022-07-27T05:07:49.579Z,452.40
2022-07-27T05:08:49.581Z,466.90
2022-07-27T05:09:49.569Z,460.00
2022-07-27T05:10:49.630Z,566.40
2022-07-27T05:11:51.847Z,582.80
2022-07-27T05:12:49.520Z,561.70
2022-07-27T05:13:49.509Z,528.20
2022-07-27T05:14:49.510Z,536.20
2022-07-27T05:15:54.905Z,519.60
2022-07-27T05:16:50.578Z,552.90
2022-07-27T05:17:49.477Z,563.20
2022-07-27T05:18:49.450Z,557.50
2022-07-27T05:19:49.431Z,568.80
2022-07-27T05:20:49.962Z,557.90
2022-07-27T05:21:49.543Z,564.30
2022-07-27T05:22:49.418Z,552.60
2022-07-27T05:23:49.393Z,532.00
2022-07-27T05:24:49.371Z,543.70
2022-07-27T05:25:49.352Z,569.40
2022-07-27T05:26:49.370Z,568.30
2022-07-27T05:27:54.114Z,567.30
2022-07-27T05:28:50.315Z,567.40
2022-07-27T05:29:49.299Z,572.60
2022-07-27T05:30:49.301Z,566.10
2022-07-27T05:31:49.369Z,575.80
2022-07-27T05:32:49.333Z,537.40
2022-07-27T05:33:52.293Z,541.50
2022-07-27T05:34:50.242Z,546.60
2022-07-27T05:35:49.225Z,565.10
2022-07-27T05:36:49.229Z,562.30
2022-07-27T05:37:49.194Z,568.80
2022-07-27T05:38:49.199Z,571.40
2022-07-27T05:39:49.163Z,549.90
2022-07-27T05:40:49.162Z,553.70
2022-07-27T05:41:49.153Z,548.70
2022-07-27T05:42:49.136Z,540.80
2022-07-27T05:43:49.280Z,552.60
2022-07-27T05:44:49.113Z,542.80
2022-07-27T05:45:49.194Z,548.80
2022-07-27T05:46:49.082Z,536.50
2022-07-27T05:47:49.064Z,526.70
2022-07-27T05:48:49.110Z,496.20
2022-07-27T05:49:49.034Z,493.70
2022-07-27T05:50:49.033Z,483.80
2022-07-27T05:51:49.013Z,486.10
2022-07-27T05:52:49.023Z,458.70
2022-07-27T05:53:48.991Z,447.30
2022-07-27T05:54:49.294Z,480.00
2022-07-27T05:55:58.761Z,462.40
2022-07-27T05:56:49.954Z,483.50
2022-07-27T05:57:48.934Z,546.60
2022-07-27T05:58:48.944Z,500.20
2022-07-27T05:59:48.913Z,499.70
2022-07-27T06:00:48.951Z,587.70
2022-07-27T06:01:48.883Z,537.00
2022-07-27T06:02:48.884Z,568.00
2022-07-27T06:03:48.962Z,560.80
2022-07-27T06:04:48.853Z,560.00
2022-07-27T06:05:49.065Z,554.70
2022-07-27T06:06:48.840Z,550.70
2022-07-27T06:07:49.893Z,549.30
2022-07-27T06:08:48.797Z,561.10
2022-07-27T06:09:48.796Z,557.70
2022-07-27T06:10:48.765Z,556.80
2022-07-27T06:11:48.765Z,556.80
2022-07-27T06:12:48.766Z,557.10
2022-07-27T06:13:48.746Z,562.30
2022-07-27T06:14:51.066Z,551.80
2022-07-27T06:15:48.726Z,555.90
2022-07-27T06:16:49.101Z,555.70
2022-07-27T06:17:48.686Z,512.10
2022-07-27T06:18:48.685Z,543.80
2022-07-27T06:19:48.657Z,543.90
2022-07-27T06:20:48.676Z,530.80
2022-07-27T06:21:53.411Z,549.40
2022-07-27T06:22:49.607Z,553.20
2022-07-27T06:23:48.606Z,556.40
2022-07-27T06:24:48.586Z,551.60
2022-07-27T06:25:48.584Z,523.80
2022-07-27T06:26:48.557Z,536.80
2022-07-27T06:27:48.887Z,547.90
2022-07-27T06:28:48.540Z,546.20
2022-07-27T06:29:48.528Z,546.10
2022-07-27T06:30:48.507Z,544.50
2022-07-27T06:31:48.574Z,543.00
2022-07-27T06:32:48.488Z,546.40
2022-07-27T06:33:50.941Z,539.60
2022-07-27T06:34:48.457Z,534.10
2022-07-27T06:35:48.459Z,539.50
2022-07-27T06:36:48.438Z,538.80
2022-07-27T06:37:48.431Z,535.20
2022-07-27T06:38:48.521Z,550.00
2022-07-27T06:39:48.409Z,545.90
2022-07-27T06:40:48.382Z,543.50
2022-07-27T06:41:48.421Z,535.20
2022-07-27T06:42:48.368Z,537.70
2022-07-27T06:43:48.351Z,536.70
2022-07-27T06:44:48.341Z,549.80
2022-07-27T06:45:48.340Z,553.80
2022-07-27T06:46:48.361Z,546.70
2022-07-27T06:47:48.952Z,551.90
2022-07-27T06:48:48.323Z,542.10
2022-07-27T06:49:48.629Z,538.80
2022-07-27T06:50:48.249Z,517.50
2022-07-27T06:51:48.243Z,534.10
2022-07-27T06:52:48.247Z,537.60
2022-07-27T06:53:48.221Z,546.30
2022-07-27T06:54:48.217Z,538.00
2022-07-27T06:55:48.203Z,543.10
2022-07-27T06:56:48.192Z,521.10
2022-07-27T06:57:48.171Z,503.70
2022-07-27T06:58:48.170Z,519.80
2022-07-27T06:59:48.150Z,525.20
2022-07-27T07:00:48.207Z,505.70
2022-07-27T07:01:48.910Z,489.00
2022-07-27T07:02:48.101Z,484.50
2022-07-27T07:03:48.160Z,486.00
2022-07-27T07:04:48.070Z,478.20
2022-07-27T07:05:48.065Z,516.20
2022-07-27T07:06:48.041Z,438.10
2022-07-27T07:07:48.041Z,427.00
2022-07-27T07:08:48.021Z,451.80
2022-07-27T07:09:48.023Z,453.40
2022-07-27T07:10:48.069Z,452.30
2022-07-27T07:11:47.996Z,452.80
2022-07-27T07:12:47.962Z,464.80
2022-07-27T07:13:47.962Z,479.80
2022-07-27T07:14:47.960Z,461.70
2022-07-27T07:15:47.993Z,467.10
2022-07-27T07:16:47.949Z,469.20
2022-07-27T07:17:47.913Z,455.30
2022-07-27T07:18:52.285Z,452.00
2022-07-27T07:19:47.882Z,432.00
2022-07-27T07:20:47.864Z,429.40
2022-07-27T07:21:48.314Z,412.80
2022-07-27T07:22:47.851Z,408.60
2022-07-27T07:23:47.843Z,382.60
2022-07-27T07:24:47.812Z,383.90
2022-07-27T07:25:47.814Z,372.00
2022-07-27T07:26:47.785Z,383.60
2022-07-27T07:27:47.773Z,347.90
2022-07-27T07:28:47.763Z,314.60
2022-07-27T07:29:47.755Z,334.40
2022-07-27T07:30:47.744Z,320.00
2022-07-27T07:31:47.796Z,326.80
2022-07-27T07:32:47.809Z,327.90
2022-07-27T07:33:47.696Z,345.30
2022-07-27T07:34:47.685Z,366.30
2022-07-27T07:36:12.039Z,350.60
2022-07-27T07:36:48.656Z,351.00
2022-07-27T07:37:50.428Z,357.50
2022-07-27T07:38:47.625Z,374.30
2022-07-27T07:39:47.646Z,368.00
2022-07-27T07:40:47.603Z,378.50
2022-07-27T07:41:47.607Z,376.00
2022-07-27T07:42:47.578Z,372.70
2022-07-27T07:43:47.690Z,376.50
2022-07-27T07:44:47.555Z,372.70
2022-07-27T07:45:51.149Z,372.60
2022-07-27T07:46:47.607Z,368.50
2022-07-27T07:47:47.520Z,379.50
2022-07-27T07:48:47.548Z,375.90
2022-07-27T07:49:47.518Z,384.40
2022-07-27T07:50:52.036Z,372.60
2022-07-27T07:51:48.469Z,377.90
2022-07-27T07:52:47.457Z,374.20
2022-07-27T07:53:47.437Z,370.90
2022-07-27T07:54:47.530Z,390.70
2022-07-27T07:55:47.428Z,366.10
2022-07-27T07:56:47.397Z,367.00
2022-07-27T07:57:47.417Z,361.90
2022-07-27T07:58:47.381Z,324.20
2022-07-27T07:59:47.358Z,325.30
2022-07-27T08:00:47.376Z,315.50
2022-07-27T08:01:47.371Z,333.70
2022-07-27T08:02:47.357Z,316.50
2022-07-27T08:03:50.844Z,313.40
2022-07-27T08:04:47.318Z,331.80
2022-07-27T08:05:47.414Z,322.30
2022-07-27T08:06:47.270Z,310.10
2022-07-27T08:07:47.272Z,340.50
2022-07-27T08:08:47.247Z,325.00
2022-07-27T08:09:47.240Z,322.10
2022-07-27T08:10:47.918Z,320.50
2022-07-27T08:11:47.223Z,320.00
2022-07-27T08:12:47.203Z,310.90
2022-07-27T08:13:47.193Z,309.80
2022-07-27T08:14:47.171Z,299.80
2022-07-27T08:15:47.204Z,292.40
2022-07-27T08:16:48.475Z,294.90
2022-07-27T08:17:47.142Z,293.30
2022-07-27T08:18:47.124Z,316.20
2022-07-27T08:19:47.122Z,320.60
2022-07-27T08:20:47.112Z,300.30
2022-07-27T08:21:47.104Z,313.60
2022-07-27T08:22:47.098Z,309.30
2022-07-27T08:23:47.058Z,295.00
2022-07-27T08:24:47.040Z,284.40
2022-07-27T08:25:47.036Z,295.90
2022-07-27T08:26:47.005Z,292.50
2022-07-27T08:27:47.563Z,292.80
2022-07-27T08:28:46.990Z,313.20
2022-07-27T08:29:46.983Z,308.70
2022-07-27T08:30:47.965Z,301.70
2022-07-27T08:31:52.195Z,304.70
2022-07-27T08:32:47.947Z,310.50
2022-07-27T08:33:46.940Z,319.20
2022-07-27T08:34:46.903Z,324.00
2022-07-27T08:35:46.893Z,329.60
2022-07-27T08:36:46.876Z,326.90
2022-07-27T08:37:46.884Z,325.20
2022-07-27T08:38:46.944Z,328.50
2022-07-27T08:40:48.216Z,310.90
2022-07-27T08:41:46.834Z,316.90
2022-07-27T08:42:46.804Z,319.10
2022-07-27T08:43:46.795Z,316.70
2022-07-27T08:44:46.769Z,313.00
2022-07-27T08:45:46.773Z,295.20
2022-07-27T08:46:46.818Z,306.70
2022-07-27T08:47:46.744Z,311.90
2022-07-27T08:48:46.786Z,309.10
2022-07-27T08:49:49.713Z,317.70
2022-07-27T08:50:46.695Z,306.50
2022-07-27T08:51:47.371Z,300.00
2022-07-27T08:52:46.665Z,329.00
2022-07-27T08:53:53.154Z,313.50
2022-07-27T08:54:47.651Z,333.30
2022-07-27T08:55:46.672Z,363.00
2022-07-27T08:56:46.616Z,352.90
2022-07-27T08:57:46.607Z,357.70
2022-07-27T08:58:46.606Z,376.80
2022-07-27T08:59:46.589Z,332.70
2022-07-27T09:00:46.673Z,320.40
2022-07-27T09:01:46.653Z,310.10
2022-07-27T09:02:46.629Z,320.70
2022-07-27T09:03:46.579Z,311.70
2022-07-27T09:04:46.530Z,305.60
2022-07-27T09:05:46.512Z,303.60
2022-07-27T09:06:46.494Z,307.40
2022-07-27T09:07:47.468Z,303.70
2022-07-27T09:08:49.993Z,308.50
2022-07-27T09:09:47.449Z,307.90
2022-07-27T09:10:46.437Z,315.60
2022-07-27T09:11:46.749Z,314.00
2022-07-27T09:12:46.408Z,303.00
2022-07-27T09:13:46.397Z,317.10
2022-07-27T09:14:51.108Z,313.40
2022-07-27T09:16:15.590Z,319.20
2022-07-27T09:17:43.910Z,317.50
2022-07-27T09:17:49.449Z,297.60
2022-07-27T09:18:46.338Z,304.70
2022-07-27T09:19:46.320Z,302.90
2022-07-27T09:20:46.314Z,311.90
2022-07-27T09:21:46.299Z,324.70
2022-07-27T09:22:46.562Z,349.20
2022-07-27T09:23:48.105Z,355.10
2022-07-27T09:24:47.832Z,362.50
2022-07-27T09:26:02.788Z,365.90
2022-07-27T09:26:47.235Z,356.80
2022-07-27T09:27:46.219Z,367.90
2022-07-27T09:28:46.211Z,361.10
2022-07-27T09:29:46.200Z,334.70
2022-07-27T09:30:46.212Z,275.80
2022-07-27T09:31:46.256Z,262.60
2022-07-27T09:32:50.934Z,259.60
2022-07-27T09:33:47.170Z,265.70
2022-07-27T09:34:46.131Z,290.70
2022-07-27T09:35:46.114Z,320.20
2022-07-27T09:36:46.101Z,303.00
2022-07-27T09:37:46.084Z,280.10
2022-07-27T09:38:50.925Z,266.50
2022-07-27T09:39:47.052Z,275.90
2022-07-27T09:40:46.057Z,271.20
2022-07-27T09:41:46.221Z,240.80
2022-07-27T09:43:08.774Z,264.00
2022-07-27T09:44:53.142Z,206.70
2022-07-27T09:45:51.318Z,198.70
2022-07-27T09:46:46.096Z,212.20
2022-07-27T09:47:45.973Z,230.30
2022-07-27T09:48:45.967Z,215.50
2022-07-27T09:49:45.935Z,211.00
2022-07-27T09:51:01.347Z,254.00
2022-07-27T09:52:02.957Z,246.30
2022-07-27T09:52:46.898Z,160.80
2022-07-27T09:53:45.888Z,153.90
2022-07-27T09:54:45.933Z,162.30
2022-07-27T09:55:45.855Z,163.90
2022-07-27T09:56:45.867Z,164.30
2022-07-27T09:57:45.824Z,171.30
2022-07-27T09:58:45.815Z,170.70
2022-07-27T09:59:45.812Z,176.90
2022-07-27T10:00:45.803Z,162.20
2022-07-27T10:01:49.932Z,161.10
2022-07-27T10:02:46.766Z,155.70
2022-07-27T10:03:45.765Z,156.30
2022-07-27T10:04:45.838Z,155.50
2022-07-27T10:05:45.823Z,150.40
2022-07-27T10:07:01.551Z,140.30
2022-07-27T10:07:46.700Z,138.50
2022-07-27T10:08:46.351Z,130.50
2022-07-27T10:09:45.683Z,123.30
2022-07-27T10:10:45.669Z,118.30
2022-07-27T10:11:45.639Z,114.70
2022-07-27T10:12:50.469Z,113.10
2022-07-27T10:13:46.620Z,108.70
2022-07-27T10:14:45.609Z,108.00
2022-07-27T10:15:45.640Z,106.40
2022-07-27T10:16:45.970Z,116.60
2022-07-27T10:17:45.569Z,120.50
2022-07-27T10:18:55.459Z,121.00
2022-07-27T10:19:46.569Z,124.20
2022-07-27T10:20:47.474Z,126.20
2022-07-27T10:21:45.526Z,129.50
2022-07-27T10:22:45.511Z,125.40
2022-07-27T10:23:45.503Z,135.20
2022-07-27T10:24:48.726Z,130.00
2022-07-27T10:25:46.486Z,142.50
2022-07-27T10:26:45.472Z,119.30
2022-07-27T10:27:45.547Z,117.40
2022-07-27T10:28:45.432Z,125.90
2022-07-27T10:29:45.411Z,122.50
2022-07-27T10:30:49.404Z,113.80
2022-07-27T10:31:46.393Z,115.10
2022-07-27T10:32:45.381Z,125.80
2022-07-27T10:33:45.366Z,124.60
2022-07-27T10:34:45.358Z,122.10
2022-07-27T10:35:45.360Z,107.70
2022-07-27T10:36:45.342Z,105.70
2022-07-27T10:37:45.307Z,105.50
2022-07-27T10:38:45.893Z,104.10
2022-07-27T10:39:45.286Z,118.10
2022-07-27T10:40:45.275Z,106.60
2022-07-27T10:41:45.276Z,120.50
2022-07-27T10:42:49.047Z,113.90
2022-07-27T10:43:46.238Z,130.80
2022-07-27T10:44:45.227Z,111.40
2022-07-27T10:45:55.216Z,110.50
2022-07-27T10:46:46.253Z,101.90
2022-07-27T10:47:45.195Z,100.10
2022-07-27T10:48:49.115Z,107.00
2022-07-27T10:49:45.332Z,118.70
2022-07-27T10:50:45.150Z,103.10
2022-07-27T10:51:45.155Z,110.70
2022-07-27T10:52:45.139Z,109.60
2022-07-27T10:54:11.121Z,101.80
2022-07-27T10:54:51.984Z,98.50
2022-07-27T10:55:46.092Z,104.20
2022-07-27T10:56:45.070Z,104.30
2022-07-27T10:57:45.083Z,103.30
2022-07-27T10:58:45.062Z,107.60
2022-07-27T11:00:50.031Z,132.60
2022-07-27T11:01:46.041Z,137.60
2022-07-27T11:02:45.013Z,128.00
2022-07-27T11:03:44.985Z,135.70
2022-07-27T11:04:45.035Z,126.90
2022-07-27T11:06:14.613Z,137.70
2022-07-27T11:07:22.646Z,119.70
2022-07-27T11:08:05.026Z,124.50
2022-07-27T11:08:47.867Z,113.70
2022-07-27T11:10:03.897Z,104.30
2022-07-27T11:10:45.912Z,99.40
2022-07-27T11:11:45.536Z,97.70
2022-07-27T11:12:44.875Z,101.50
2022-07-27T11:13:44.866Z,107.30
2022-07-27T11:14:44.881Z,97.80
2022-07-27T11:15:44.836Z,98.70
2022-07-27T11:16:54.708Z,98.40
2022-07-27T11:17:57.551Z,93.90
2022-07-27T11:18:45.843Z,103.70
2022-07-27T11:19:44.812Z,107.70
2022-07-27T11:20:44.788Z,128.20
2022-07-27T11:21:44.778Z,144.60
2022-07-27T11:23:26.621Z,175.70
2022-07-27T11:23:52.913Z,171.10
2022-07-27T11:24:45.728Z,168.80
2022-07-27T11:25:44.721Z,188.70
2022-07-27T11:26:44.700Z,162.70
2022-07-27T11:27:44.689Z,145.10
2022-07-27T11:28:44.678Z,133.20
2022-07-27T11:29:44.674Z,135.70
2022-07-27T11:30:44.705Z,136.60
2022-07-27T11:31:55.302Z,129.90
2022-07-27T11:32:46.030Z,112.80
2022-07-27T11:33:44.634Z,125.70
2022-07-27T11:34:44.624Z,123.70
2022-07-27T11:35:44.594Z,109.00
2022-07-27T11:36:44.584Z,124.70
2022-07-27T11:37:44.563Z,125.10
2022-07-27T11:38:44.554Z,128.40
2022-07-27T11:39:59.648Z,155.90
2022-07-27T11:40:56.990Z,128.30
2022-07-27T11:42:08.547Z,129.70
2022-07-27T11:42:45.518Z,127.50
2022-07-27T11:43:45.681Z,137.10
2022-07-27T11:44:44.489Z,146.40
2022-07-27T11:45:44.522Z,155.00
2022-07-27T11:46:44.465Z,147.60
2022-07-27T11:47:44.447Z,169.70
2022-07-27T11:49:05.526Z,168.50
2022-07-27T11:49:45.492Z,212.20
2022-07-27T11:50:44.416Z,176.20
2022-07-27T11:51:44.398Z,180.60
2022-07-27T11:52:44.388Z,187.80
2022-07-27T11:53:44.368Z,185.40
2022-07-27T11:54:44.458Z,178.70
2022-07-27T11:55:44.361Z,163.80
2022-07-27T11:56:44.363Z,189.40
2022-07-27T11:57:44.354Z,162.20
2022-07-27T11:58:44.319Z,171.90
2022-07-27T11:59:44.300Z,172.30
2022-07-27T12:00:44.331Z,153.60
2022-07-27T12:01:44.280Z,155.70
2022-07-27T12:02:44.305Z,149.70
2022-07-27T12:03:47.101Z,154.90
2022-07-27T12:04:44.277Z,157.90
2022-07-27T12:05:44.342Z,150.20
2022-07-27T12:06:44.216Z,156.60
2022-07-27T12:07:44.225Z,136.70
2022-07-27T12:08:44.191Z,139.60
2022-07-27T12:09:44.172Z,138.50
2022-07-27T12:10:44.164Z,140.00
2022-07-27T12:11:44.162Z,125.70
2022-07-27T12:12:44.143Z,146.70
2022-07-27T12:13:44.124Z,128.30
2022-07-27T12:14:44.116Z,134.20
2022-07-27T12:15:46.623Z,120.90
2022-07-27T12:16:44.561Z,142.10
2022-07-27T12:17:44.075Z,151.70
2022-07-27T12:18:44.071Z,130.30
2022-07-27T12:19:44.046Z,123.10
2022-07-27T12:20:44.038Z,117.70
2022-07-27T12:21:48.347Z,126.00
2022-07-27T12:22:44.020Z,137.60
2022-07-27T12:23:43.996Z,119.70
2022-07-27T12:24:43.987Z,127.70
2022-07-27T12:25:43.979Z,126.60
2022-07-27T12:26:43.956Z,144.30
2022-07-27T12:27:44.017Z,154.20
2022-07-27T12:28:43.940Z,163.80
2022-07-27T12:29:43.927Z,164.10
2022-07-27T12:30:43.946Z,167.10
2022-07-27T12:31:43.896Z,150.60